Time;durP1;ratioP1;P1;durP2;ratioP2;P2;SDS_P1;SDS_P2;PMS_P1;PMS_P2;Temp;Humidity;BMP_temperature;BMP_pressure;BME280_temperature;BME280_humidity;BME280_pressure;Samples;Min_cycle;Max_cycle;Signal;HPM_P1;HPM_P2
2022/07/12 00:00:56;;;;;;;;;3.25;3.00;;;;;25.15;40.70;101596.66;5033995;28;71829;-48
2022/07/12 00:03:22;;;;;;;;;3.00;3.00;;;;;25.13;40.35;101595.91;5030600;28;67394;-48
2022/07/12 00:05:47;;;;;;;;;3.00;3.00;;;;;25.08;40.82;101590.88;5028172;28;53383;-48
2022/07/12 00:08:12;;;;;;;;;3.00;3.00;;;;;25.06;40.96;101583.94;5030253;28;45446;-49
2022/07/12 00:10:38;;;;;;;;;3.25;3.25;;;;;25.04;40.99;101594.78;5028772;28;45485;-50
2022/07/12 00:13:04;;;;;;;;;2.75;1.75;;;;;25.02;40.96;101577.97;5029312;28;69274;-48
2022/07/12 00:15:29;;;;;;;;;4.50;2.25;;;;;24.97;41.39;101578.31;5032232;28;63178;-48
2022/07/12 00:17:55;;;;;;;;;2.50;2.50;;;;;24.97;41.05;101580.97;5037405;28;45458;-44
2022/07/12 00:20:20;;;;;;;;;4.75;3.00;;;;;24.94;41.18;101583.03;5032347;28;62581;-45
2022/07/12 00:22:46;;;;;;;;;3.25;3.00;;;;;24.92;41.25;101579.63;5031888;28;45419;-46
2022/07/12 00:25:12;;;;;;;;;2.25;2.25;;;;;24.89;41.04;101582.50;5034255;28;45386;-44
2022/07/12 00:27:38;;;;;;;;;5.00;3.00;;;;;24.84;41.28;101596.22;5035064;28;45281;-44
2022/07/12 00:30:05;;;;;;;;;2.25;2.25;;;;;24.81;41.17;101585.78;5032142;28;45163;-45
2022/07/12 00:32:30;;;;;;;;;3.75;3.75;;;;;24.78;41.83;101586.00;5032442;28;45356;-49
2022/07/12 00:34:56;;;;;;;;;4.00;3.75;;;;;24.76;41.83;101578.06;5027252;28;60835;-46
2022/07/12 00:37:21;;;;;;;;;4.00;2.00;;;;;24.73;41.79;101575.59;5011221;28;45947;-47
2022/07/12 00:39:46;;;;;;;;;1.00;1.00;;;;;24.70;41.88;101573.19;5030970;28;60461;-46
2022/07/12 00:42:12;;;;;;;;;7.00;3.00;;;;;24.68;41.95;101576.91;5026981;28;69800;-45
2022/07/12 00:44:37;;;;;;;;;3.00;3.00;;;;;24.66;42.04;101574.34;5031493;28;55802;-48
2022/07/12 00:47:03;;;;;;;;;3.25;3.00;;;;;24.65;42.34;101572.66;5023475;28;49598;-47
2022/07/12 00:49:29;;;;;;;;;2.25;2.25;;;;;24.63;42.30;101569.25;5032452;28;46661;-47
2022/07/12 00:51:55;;;;;;;;;3.00;3.00;;;;;24.61;42.41;101569.34;5028676;28;46339;-45
2022/07/12 00:54:20;;;;;;;;;3.75;3.00;;;;;24.59;42.27;101565.91;5034697;28;45339;-50
2022/07/12 00:56:46;;;;;;;;;5.25;4.00;;;;;24.59;42.96;101570.41;5028921;28;71327;-46
2022/07/12 00:59:12;;;;;;;;;4.00;4.00;;;;;24.55;42.24;101567.09;5035759;28;46615;-50
2022/07/12 01:01:38;;;;;;;;;3.00;2.75;;;;;24.53;42.86;101570.84;5027948;28;45514;-50
2022/07/12 01:04:04;;;;;;;;;4.00;2.25;;;;;24.52;42.63;101566.44;5031537;28;45466;-45
2022/07/12 01:06:31;;;;;;;;;6.25;5.50;;;;;24.50;42.51;101568.38;5030272;28;45462;-46
2022/07/12 01:08:58;;;;;;;;;5.25;4.00;;;;;24.49;42.87;101561.31;5035053;28;45506;-47
2022/07/12 01:11:24;;;;;;;;;5.25;4.25;;;;;24.46;42.95;101565.06;5034598;28;45428;-48
2022/07/12 01:13:51;;;;;;;;;7.25;5.00;;;;;24.44;42.83;101564.34;5030655;28;45584;-52
2022/07/12 01:16:18;;;;;;;;;3.00;3.00;;;;;24.42;42.84;101567.13;5032462;28;45485;-45
2022/07/12 01:18:46;;;;;;;;;4.75;4.00;;;;;24.42;43.38;101571.63;5034332;28;46928;-46
2022/07/12 01:21:17;;;;;;;;;5.00;5.00;;;;;24.39;42.73;101574.53;5044930;28;45323;-48
2022/07/12 01:23:44;;;;;;;;;4.25;4.00;;;;;24.38;43.28;101564.78;5032983;28;45445;-45
2022/07/12 01:26:09;;;;;;;;;6.00;3.00;;;;;24.37;43.06;101571.94;5033432;28;45553;-47
2022/07/12 01:28:35;;;;;;;;;4.00;4.00;;;;;24.35;43.21;101575.72;5032452;28;75971;-50
2022/07/12 01:31:01;;;;;;;;;5.25;4.00;;;;;24.33;43.26;101559.78;5031889;28;45553;-45
2022/07/12 01:33:26;;;;;;;;;4.00;3.75;;;;;24.31;43.39;101561.72;5029557;28;45411;-45
2022/07/12 01:35:52;;;;;;;;;4.25;3.00;;;;;24.29;43.83;101562.75;5026645;28;45592;-46
2022/07/12 01:38:17;;;;;;;;;4.00;4.00;;;;;24.26;43.26;101551.31;5022144;28;45431;-44
2022/07/12 01:40:42;;;;;;;;;4.00;4.00;;;;;24.25;43.11;101552.28;5036800;28;45421;-49
2022/07/12 01:43:08;;;;;;;;;5.75;4.50;;;;;24.25;43.71;101548.75;5034012;28;45495;-45
2022/07/12 01:45:33;;;;;;;;;5.00;5.00;;;;;24.24;43.38;101557.72;5026665;28;67975;-45
2022/07/12 01:47:58;;;;;;;;;4.75;3.75;;;;;24.23;43.97;101554.22;5032685;28;65686;-46
2022/07/12 01:50:24;;;;;;;;;4.00;3.00;;;;;24.21;43.56;101558.81;5029932;28;45525;-45
2022/07/12 01:52:50;;;;;;;;;4.00;4.00;;;;;24.20;43.81;101562.44;5031085;28;45329;-48
2022/07/12 01:55:15;;;;;;;;;6.75;6.00;;;;;24.19;43.54;101562.59;5026720;28;54459;-44
2022/07/12 01:57:42;;;;;;;;;5.00;4.25;;;;;24.16;43.52;101566.31;5030545;28;64835;-45
2022/07/12 02:00:08;;;;;;;;;4.50;4.00;;;;;24.16;44.00;101562.78;5030340;28;45237;-45
2022/07/12 02:02:34;;;;;;;;;5.75;5.00;;;;;24.12;44.01;101562.16;5025414;28;45328;-46
2022/07/12 02:05:00;;;;;;;;;4.00;4.00;;;;;24.11;43.86;101564.94;5032473;28;45834;-45
2022/07/12 02:07:25;;;;;;;;;9.75;5.00;;;;;24.07;44.34;101558.97;5030729;28;46165;-47
2022/07/12 02:09:51;;;;;;;;;4.25;3.50;;;;;24.03;44.15;101569.03;5013769;28;45359;-45
2022/07/12 02:12:16;;;;;;;;;5.00;5.00;;;;;24.03;44.18;101560.16;5037811;28;45292;-47
2022/07/12 02:14:42;;;;;;;;;7.00;3.00;;;;;24.02;44.07;101563.78;5036345;28;45621;-48
2022/07/12 02:17:07;;;;;;;;;5.25;4.00;;;;;23.99;43.95;101562.19;5038794;28;53248;-49
2022/07/12 02:19:32;;;;;;;;;3.00;3.00;;;;;23.98;43.89;101565.81;5034392;28;64239;-47
2022/07/12 02:21:58;;;;;;;;;4.00;3.50;;;;;23.95;43.96;101562.50;5041354;28;58906;-48
2022/07/12 02:24:23;;;;;;;;;4.00;4.00;;;;;23.93;44.13;101564.44;5031560;28;56881;-45
2022/07/12 02:26:48;;;;;;;;;0.00;0.00;;;;;23.92;44.51;101560.91;5040079;28;69138;-44
2022/07/12 02:29:13;;;;;;;;;4.75;4.00;;;;;23.91;44.55;101566.34;5034560;28;63336;-46
2022/07/12 02:31:39;;;;;;;;;4.75;4.50;;;;;23.88;44.67;101562.91;5022041;28;45505;-44
2022/07/12 02:34:05;;;;;;;;;4.00;3.00;;;;;23.85;44.40;101565.81;5031512;28;45489;-45
2022/07/12 02:36:31;;;;;;;;;3.50;3.50;;;;;23.84;44.34;101568.59;5032368;28;47329;-45
2022/07/12 02:39:02;;;;;;;;;4.75;4.75;;;;;23.81;44.51;101566.97;5020050;28;45304;-47
2022/07/12 02:41:27;;;;;;;;;3.00;3.00;;;;;23.79;44.54;101560.00;5042170;28;45515;-47
2022/07/12 02:43:52;;;;;;;;;4.50;3.00;;;;;23.77;44.87;101559.28;5047615;28;63793;-50
2022/07/12 02:46:18;;;;;;;;;3.75;3.50;;;;;23.73;44.74;101561.31;5031063;28;71505;-46
2022/07/12 02:48:43;;;;;;;;;5.50;5.50;;;;;23.69;44.90;101565.13;5033047;28;56529;-46
2022/07/12 02:51:09;;;;;;;;;6.75;4.00;;;;;23.66;45.35;101566.22;5034347;28;53960;-45
2022/07/12 02:53:35;;;;;;;;;5.00;3.75;;;;;23.65;45.45;101574.31;5044918;28;45356;-46
2022/07/12 02:56:00;;;;;;;;;4.75;4.75;;;;;23.62;45.19;101575.41;5035073;28;69789;-47
2022/07/12 02:58:26;;;;;;;;;5.75;4.00;;;;;23.60;45.35;101572.00;5029619;28;45361;-45
2022/07/12 03:00:51;;;;;;;;;6.25;4.25;;;;;23.58;45.40;101578.38;5034752;28;45411;-50
2022/07/12 03:03:17;;;;;;;;;3.00;3.00;;;;;23.57;45.03;101577.53;5033474;28;69713;-45
2022/07/12 03:05:43;;;;;;;;;3.00;3.00;;;;;23.55;45.40;101576.78;5031070;28;45267;-47
2022/07/12 03:08:10;;;;;;;;;4.50;4.50;;;;;23.51;46.08;101580.63;5035357;28;45396;-64
2022/07/12 03:10:36;;;;;;;;;4.00;3.75;;;;;23.44;45.88;101587.34;5028722;28;45494;-64
2022/07/12 03:13:01;;;;;;;;;5.25;4.00;;;;;23.36;46.67;101576.34;5035075;28;45577;-63
2022/07/12 03:15:30;;;;;;;;;4.25;2.75;;;;;23.31;46.73;101580.16;5034372;28;46107;-64
2022/07/12 03:17:57;;;;;;;;;4.50;4.00;;;;;23.30;46.61;101583.78;5030202;28;45661;-64
2022/07/12 03:20:22;;;;;;;;;4.00;4.00;;;;;23.25;46.86;101577.91;5032129;28;45438;-64
2022/07/12 03:22:50;;;;;;;;;5.00;4.25;;;;;23.23;46.64;101579.84;5033713;28;70942;-64
2022/07/12 03:25:15;;;;;;;;;5.00;3.00;;;;;23.21;45.90;101579.06;5038395;28;46375;-64
2022/07/12 03:27:40;;;;;;;;;4.00;4.00;;;;;23.20;46.32;101574.69;5025970;28;45408;-64
2022/07/12 03:30:07;;;;;;;;;4.00;4.00;;;;;23.18;46.53;101578.41;5036840;28;45520;-64
2022/07/12 03:32:32;;;;;;;;;5.00;4.00;;;;;23.13;46.93;101574.22;5032105;28;45336;-64
2022/07/12 03:34:58;;;;;;;;;4.00;3.25;;;;;23.11;46.34;101584.16;5029297;28;58644;-64
2022/07/12 03:37:23;;;;;;;;;3.75;3.75;;;;;23.09;46.45;101577.22;5035705;28;61686;-64
2022/07/12 03:39:49;;;;;;;;;5.50;4.75;;;;;23.08;46.38;101575.50;5037648;28;61618;-64
2022/07/12 03:42:14;;;;;;;;;3.50;3.50;;;;;23.05;46.86;101586.38;5037285;28;45243;-63
2022/07/12 03:44:39;;;;;;;;;4.00;4.00;;;;;23.01;46.67;101588.38;5032066;28;46753;-64
2022/07/12 03:47:05;;;;;;;;;5.25;5.25;;;;;22.99;47.55;101587.63;5030885;28;65340;-64
2022/07/12 03:49:31;;;;;;;;;4.00;4.00;;;;;22.97;47.84;101591.34;5036824;28;45584;-64
2022/07/12 03:51:56;;;;;;;;;5.00;4.50;;;;;22.94;47.39;101595.06;5032039;28;60487;-64
2022/07/12 03:54:22;;;;;;;;;4.00;4.00;;;;;22.91;47.37;101595.25;5025494;28;45942;-64
2022/07/12 03:59:31;;;;;;;;;7.00;5.00;;;;;22.85;47.03;101595.69;5028190;28;45517;-64
2022/07/12 04:01:57;;;;;;;;;4.00;4.00;;;;;22.84;47.86;101599.28;5031764;28;62744;-63
2022/07/12 04:04:23;;;;;;;;;5.25;4.00;;;;;22.82;47.30;101602.06;5032896;28;46888;-64
2022/07/12 04:06:48;;;;;;;;;4.75;3.50;;;;;22.83;47.07;101606.44;5048163;28;46478;-64
2022/07/12 04:09:13;;;;;;;;;4.50;4.50;;;;;22.84;47.31;101607.28;5033313;28;45412;-64
2022/07/12 04:11:39;;;;;;;;;4.00;4.00;;;;;22.84;47.37;101612.63;5049198;28;63269;-64
2022/07/12 04:14:04;;;;;;;;;7.00;4.75;;;;;22.83;47.94;101610.94;5031193;28;46702;-64
2022/07/12 04:16:30;;;;;;;;;3.75;3.00;;;;;22.82;47.86;101617.22;5033084;28;65316;-64
2022/07/12 04:18:55;;;;;;;;;4.75;4.75;;;;;22.80;47.41;101611.97;5025477;28;45431;-65
2022/07/12 04:21:21;;;;;;;;;4.50;4.00;;;;;22.81;47.09;101618.19;5052136;28;45708;-64
2022/07/12 04:23:46;;;;;;;;;7.00;5.75;;;;;22.80;47.34;101611.97;5033906;28;45550;-64
2022/07/12 04:26:12;;;;;;;;;5.00;5.00;;;;;22.82;47.71;101619.88;5036058;28;64975;-64
2022/07/12 04:28:37;;;;;;;;;7.50;5.00;;;;;22.81;47.17;101613.69;5036230;28;65688;-63
2022/07/12 04:31:02;;;;;;;;;4.25;4.25;;;;;22.84;47.06;101616.19;5032691;28;45674;-64
2022/07/12 04:33:28;;;;;;;;;4.75;4.50;;;;;22.85;47.66;101615.19;5036209;28;46354;-64
2022/07/12 04:35:54;;;;;;;;;5.50;5.00;;;;;22.86;47.20;101626.72;5027685;28;45425;-64
2022/07/12 04:38:19;;;;;;;;;6.50;4.50;;;;;22.86;47.70;101622.28;5033866;28;45456;-64
2022/07/12 04:40:45;;;;;;;;;5.50;5.00;;;;;22.85;47.26;101619.69;5035471;28;45560;-64
2022/07/12 04:43:10;;;;;;;;;8.25;7.25;;;;;22.81;47.38;101613.69;5037665;28;54069;-64
2022/07/12 04:45:36;;;;;;;;;9.50;5.25;;;;;22.80;47.57;101611.97;5033455;28;45223;-64
2022/07/12 04:48:01;;;;;;;;;7.00;4.25;;;;;22.80;48.05;101614.63;5029476;28;45280;-64
2022/07/12 04:50:27;;;;;;;;;5.75;5.00;;;;;22.80;47.67;101616.47;5032971;28;45324;-64
2022/07/12 04:52:52;;;;;;;;;6.50;5.00;;;;;22.78;48.08;101621.91;5029798;28;66614;-64
2022/07/12 04:55:17;;;;;;;;;7.50;5.00;;;;;22.75;47.84;101624.75;5029395;28;56951;-64
2022/07/12 04:57:43;;;;;;;;;8.00;6.00;;;;;22.75;47.56;101624.75;5039162;28;45377;-64
2022/07/12 05:00:09;;;;;;;;;10.25;6.25;;;;;22.76;47.79;101626.47;5028479;28;61546;-64
2022/07/12 05:02:34;;;;;;;;;5.25;4.25;;;;;22.80;47.65;101629.81;5028081;28;46126;-64
2022/07/12 05:05:00;;;;;;;;;6.00;5.25;;;;;22.82;47.66;101633.22;5029491;28;45389;-64
2022/07/12 05:07:25;;;;;;;;;8.75;5.75;;;;;22.80;47.68;101630.66;5034534;28;45482;-64
2022/07/12 05:09:51;;;;;;;;;6.00;5.50;;;;;22.80;47.83;101636.00;5031722;28;70272;-64
2022/07/12 05:12:17;;;;;;;;;4.25;4.25;;;;;22.83;47.72;101641.13;5038005;28;46186;-65
2022/07/12 05:14:42;;;;;;;;;7.50;4.75;;;;;22.87;48.07;101636.47;5030411;28;45991;-65
2022/07/12 05:17:07;;;;;;;;;9.00;5.00;;;;;22.90;47.68;101652.28;5027862;28;45730;-65
2022/07/12 05:19:33;;;;;;;;;11.00;8.00;;;;;22.91;48.87;101651.31;5031134;28;58809;-65
2022/07/12 05:21:58;;;;;;;;;6.50;5.00;;;;;22.93;48.11;101652.09;5030573;28;72888;-65
2022/07/12 05:24:23;;;;;;;;;8.50;6.50;;;;;22.93;48.18;101655.63;5031706;28;65448;-64
2022/07/12 05:26:49;;;;;;;;;7.00;6.50;;;;;22.94;48.57;101654.63;5035283;28;45347;-64
2022/07/12 05:29:14;;;;;;;;;5.50;5.00;;;;;22.95;47.53;101655.53;5031199;28;54501;-65
2022/07/12 05:31:39;;;;;;;;;8.25;6.00;;;;;22.98;47.46;101655.28;5035055;28;73453;-65
2022/07/12 05:34:04;;;;;;;;;7.00;7.00;;;;;;;;5032672;28;64915;-64
2022/07/12 05:36:30;;;;;;;;;7.00;7.00;;;;;23.06;47.63;101662.88;5038327;28;45449;-65
2022/07/12 05:38:55;;;;;;;;;8.00;6.75;;;;;23.10;47.91;101670.56;5029914;28;45459;-64
2022/07/12 05:41:21;;;;;;;;;6.50;6.00;;;;;23.16;47.49;101665.78;5037426;28;53187;-65
2022/07/12 05:43:46;;;;;;;;;9.00;7.00;;;;;23.19;47.78;101666.44;5031813;28;60614;-64
2022/07/12 05:46:11;;;;;;;;;7.00;6.00;;;;;23.20;47.75;101670.81;5031143;28;45610;-64
2022/07/12 05:48:38;;;;;;;;;8.75;8.00;;;;;23.21;47.33;101666.34;5031489;28;69206;-65
2022/07/12 05:53:48;;;;;;;;;9.75;8.00;;;;;23.22;47.84;101674.25;5036511;28;45677;-65
2022/07/12 05:56:13;;;;;;;;;9.50;7.25;;;;;23.22;47.75;101666.22;5033298;28;69062;-64
2022/07/12 05:58:38;;;;;;;;;6.75;6.50;;;;;23.25;47.33;101667.88;5037164;28;45395;-64
2022/07/12 06:01:04;;;;;;;;;7.75;6.75;;;;;23.24;47.21;101668.81;5034734;28;45878;-63
2022/07/12 06:03:29;;;;;;;;;6.50;5.25;;;;;23.28;47.14;101683.66;5037873;28;46287;-64
2022/07/12 06:05:55;;;;;;;;;6.75;6.75;;;;;23.33;47.53;101683.38;5034715;28;45547;-64
2022/07/12 06:08:20;;;;;;;;;6.00;6.00;;;;;23.35;47.10;101692.97;5037197;28;45651;-64
2022/07/12 06:10:46;;;;;;;;;8.00;7.25;;;;;23.35;46.96;101684.97;5035518;28;64433;-64
2022/07/12 06:13:11;;;;;;;;;8.00;8.00;;;;;23.40;47.00;101687.34;5036203;28;73268;-64
2022/07/12 06:15:37;;;;;;;;;8.75;6.25;;;;;23.42;47.16;101693.44;5037375;28;59823;-66
2022/07/12 06:18:02;;;;;;;;;10.25;8.00;;;;;23.46;46.96;101694.94;5031208;28;45537;-64
2022/07/12 06:20:28;;;;;;;;;9.50;8.00;;;;;23.50;47.06;101693.81;5033174;28;46057;-64
2022/07/12 06:22:54;;;;;;;;;11.00;9.00;;;;;23.55;46.88;101689.00;5035564;28;45435;-64
2022/07/12 06:25:20;;;;;;;;;7.50;6.25;;;;;23.59;46.96;101695.84;5034010;28;45523;-64
2022/07/12 06:27:46;;;;;;;;;9.75;6.75;;;;;23.65;47.12;101691.91;5034185;28;45459;-64
2022/07/12 06:30:11;;;;;;;;;9.00;7.00;;;;;23.70;46.45;101687.97;5030286;28;47385;-65
2022/07/12 06:32:37;;;;;;;;;6.75;6.75;;;;;23.75;46.85;101694.84;5036609;28;71402;-65
2022/07/12 06:35:02;;;;;;;;;7.00;6.25;;;;;23.76;46.59;101693.84;5032270;28;45198;-64
2022/07/12 06:37:28;;;;;;;;;11.50;7.50;;;;;23.80;46.32;101695.38;5032640;28;45456;-64
2022/07/12 06:39:53;;;;;;;;;7.75;7.50;;;;;23.84;46.37;101688.91;5033949;28;62122;-65
2022/07/12 06:42:18;;;;;;;;;16.25;9.75;;;;;23.86;46.29;101694.97;5037134;28;67433;-64
2022/07/12 06:44:44;;;;;;;;;10.50;8.75;;;;;23.89;46.60;101694.78;5027040;28;45463;-64
2022/07/12 06:47:10;;;;;;;;;10.00;7.50;;;;;23.90;46.13;101700.97;5033710;28;56360;-65
2022/07/12 06:49:35;;;;;;;;;8.25;7.25;;;;;23.91;46.26;101698.22;5028147;28;46312;-64
2022/07/12 06:52:00;;;;;;;;;10.75;8.75;;;;;23.92;46.46;101699.06;5036160;28;60898;-64
2022/07/12 06:54:26;;;;;;;;;10.50;8.00;;;;;23.93;46.18;101690.09;5025515;28;57833;-64
2022/07/12 06:56:51;;;;;;;;;7.00;7.00;;;;;23.95;46.47;101694.34;5035924;28;45475;-65
2022/07/12 06:59:16;;;;;;;;;9.75;5.25;;;;;23.99;45.93;101698.56;5028464;28;75201;-68
2022/07/12 07:01:45;;;;;;;;;7.25;7.00;;;;;24.04;46.62;101706.25;5030826;28;45440;-76
2022/07/12 07:04:10;;;;;;;;;8.00;6.75;;;;;24.07;46.29;101706.88;5033839;28;68116;-71
2022/07/12 07:06:35;;;;;;;;;9.00;7.25;;;;;24.10;46.06;101702.28;5036728;28;75482;-71
2022/07/12 07:09:01;;;;;;;;;10.25;8.25;;;;;24.14;46.11;101701.97;5033030;28;59635;-71
2022/07/12 07:11:26;;;;;;;;;8.50;8.00;;;;;24.21;45.70;101697.06;5036142;28;58896;-70
2022/07/12 07:13:53;;;;;;;;;11.25;7.50;;;;;24.25;45.74;101703.91;5049130;28;57066;-66
2022/07/12 07:16:22;;;;;;;;;10.00;8.00;;;;;24.30;45.75;101701.75;5034540;28;45651;-64
2022/07/12 07:18:47;;;;;;;;;8.50;7.25;;;;;24.34;45.86;101694.38;5036339;28;45400;-61
2022/07/12 07:21:12;;;;;;;;;7.75;7.00;;;;;24.37;45.86;101702.19;5031749;28;64875;-64
2022/07/12 07:23:37;;;;;;;;;11.25;8.75;;;;;24.41;45.63;101707.22;5032611;28;62347;-53
2022/07/12 07:26:03;;;;;;;;;12.25;9.25;;;;;24.49;45.26;101704.00;5027896;28;68005;-66
2022/07/12 07:28:28;;;;;;;;;6.50;5.25;;;;;24.55;45.36;101702.75;5025861;28;56034;-58
2022/07/12 07:30:54;;;;;;;;;10.25;7.00;;;;;24.61;45.38;101708.53;5033626;28;63939;-64
2022/07/12 07:33:23;;;;;;;;;8.75;6.00;;;;;24.68;45.13;101711.59;5029280;28;45378;-60
2022/07/12 07:35:49;;;;;;;;;11.50;9.75;;;;;24.76;45.17;101713.75;5029309;28;45490;-62
2022/07/12 07:38:17;;;;;;;;;8.25;8.25;;;;;24.83;44.77;101709.66;5033468;28;46501;-61
2022/07/12 07:40:43;;;;;;;;;9.00;7.50;;;;;24.86;44.80;101704.09;5029842;28;46026;-63
2022/07/12 07:43:09;;;;;;;;;9.75;8.25;;;;;24.91;44.74;101709.09;5032123;28;45459;-51
2022/07/12 07:45:35;;;;;;;;;10.50;7.50;;;;;24.97;44.66;101714.03;5034882;28;51215;-64
2022/07/12 07:48:00;;;;;;;;;6.75;6.00;;;;;25.03;44.29;101710.91;5035543;28;45328;-54
2022/07/12 07:50:27;;;;;;;;;8.00;7.00;;;;;25.10;44.53;101708.63;5028685;28;45528;-55
2022/07/12 07:52:52;;;;;;;;;8.50;6.75;;;;;25.15;44.38;101717.19;5027499;28;45275;-56
2022/07/12 07:55:18;;;;;;;;;7.00;6.25;;;;;25.23;44.27;101719.28;5032306;28;45635;-57
2022/07/12 07:57:43;;;;;;;;;9.25;7.75;;;;;25.28;44.12;101720.69;5034655;28;47081;-55
2022/07/12 08:00:10;;;;;;;;;9.50;7.75;;;;;25.37;43.90;101728.06;5032295;28;49512;-57
2022/07/12 08:02:35;;;;;;;;;8.00;7.00;;;;;25.43;43.89;101720.53;5033545;28;45473;-56
2022/07/12 08:05:01;;;;;;;;;10.50;8.00;;;;;25.49;43.53;101718.25;5031014;28;45434;-57
2022/07/12 08:07:26;;;;;;;;;7.50;6.25;;;;;25.54;43.52;101718.75;5034125;28;73572;-53
2022/07/12 08:09:52;;;;;;;;;10.75;8.25;;;;;25.58;43.56;101720.22;5031570;28;45534;-63
2022/07/12 08:12:17;;;;;;;;;7.25;6.25;;;;;25.63;43.14;101719.91;5030666;28;58391;-65
2022/07/12 08:14:42;;;;;;;;;5.25;5.00;;;;;25.70;43.18;101723.81;5026263;28;65556;-42
2022/07/12 08:17:08;;;;;;;;;9.75;7.50;;;;;25.76;43.44;101725.19;5032272;28;45422;-43
2022/07/12 08:19:33;;;;;;;;;8.00;6.00;;;;;25.81;43.09;101719.47;5034890;28;66411;-41
2022/07/12 08:21:58;;;;;;;;;8.00;7.00;;;;;25.88;42.70;101728.75;5034402;28;45422;-43
2022/07/12 08:24:24;;;;;;;;;7.25;6.00;;;;;25.93;42.70;101724.78;5029370;28;64590;-44
2022/07/12 08:26:50;;;;;;;;;9.00;7.00;;;;;25.99;42.58;101725.28;5035253;28;56229;-42
2022/07/12 08:29:15;;;;;;;;;10.75;7.25;;;;;26.05;41.93;101736.41;5044579;28;45542;-49
2022/07/12 08:31:40;;;;;;;;;7.00;5.25;;;;;26.12;41.93;101726.06;5036996;28;62334;-48
2022/07/12 08:34:06;;;;;;;;;6.25;6.25;;;;;26.18;41.79;101727.41;5032657;28;51745;-44
2022/07/12 08:36:31;;;;;;;;;8.25;6.50;;;;;26.23;42.01;101723.41;5030060;28;45419;-48
2022/07/12 08:38:56;;;;;;;;;5.50;5.50;;;;;26.31;41.58;101726.34;5033169;28;53098;-48
2022/07/12 08:41:22;;;;;;;;;6.00;6.00;;;;;26.38;41.28;101720.47;5035598;28;63188;-44
2022/07/12 08:43:47;;;;;;;;;6.00;5.00;;;;;26.45;41.18;101719.88;5034673;28;60020;-46
2022/07/12 08:46:13;;;;;;;;;8.50;6.50;;;;;26.52;40.97;101721.13;5027556;28;45349;-46
2022/07/12 08:48:40;;;;;;;;;6.25;5.00;;;;;26.58;41.47;101722.47;5038394;28;46051;-45
2022/07/12 08:51:08;;;;;;;;;8.00;5.00;;;;;26.65;40.92;101720.19;5031665;28;45650;-47
2022/07/12 08:53:34;;;;;;;;;6.00;4.75;;;;;26.73;40.75;101720.41;5029282;28;45431;-44
2022/07/12 08:56:00;;;;;;;;;5.75;3.50;;;;;26.81;40.59;101719.81;5036446;28;46308;-45
2022/07/12 08:58:25;;;;;;;;;6.00;6.00;;;;;26.89;39.83;101736.16;5028010;28;45486;-44
2022/07/12 09:00:51;;;;;;;;;4.75;4.25;;;;;26.95;40.08;101719.53;5035373;28;45212;-44
2022/07/12 09:03:17;;;;;;;;;5.00;5.00;;;;;27.02;40.38;101720.75;5029078;28;45464;-44
2022/07/12 09:05:53;;;;;;;;;7.00;5.00;;;;;27.10;39.82;101717.44;5036331;28;46206;-43
2022/07/12 09:08:28;;;;;;;;;7.00;5.00;;;;;27.17;39.26;101717.78;5029451;28;45329;-44
2022/07/12 09:10:55;;;;;;;;;6.25;5.00;;;;;27.22;38.79;101719.13;5033995;28;45502;-44
2022/07/12 09:13:41;;;;;;;;;4.00;4.00;;;;;27.27;39.12;101716.94;5030436;28;45577;-43
2022/07/12 09:16:26;;;;;;;;;7.00;3.25;;;;;27.37;38.91;101721.53;5033721;28;46089;-45
2022/07/12 09:18:52;;;;;;;;;5.25;4.00;;;;;27.46;38.74;101726.16;5033775;28;45612;-44
2022/07/12 09:21:29;;;;;;;;;3.00;3.00;;;;;27.55;38.10;101727.22;5030655;28;45488;-45
2022/07/12 09:23:56;;;;;;;;;6.00;4.00;;;;;27.64;37.93;101718.38;5030110;28;47034;-45
2022/07/12 09:26:22;;;;;;;;;4.00;2.75;;;;;27.72;37.30;101718.59;5036360;28;46910;-45
2022/07/12 09:28:51;;;;;;;;;3.50;3.25;;;;;27.80;37.12;101721.50;5017743;28;45632;-46
2022/07/12 09:31:16;;;;;;;;;6.75;6.75;;;;;27.89;37.64;101725.25;5026186;28;45492;-44
2022/07/12 09:36:54;;;;;;;;;7.50;4.00;;;;;28.08;36.72;101723.69;5037812;28;45774;-45
2022/07/12 09:39:20;;;;;;;;;4.00;4.00;;;;;28.16;36.27;101727.44;5034990;28;45648;-45
2022/07/12 09:41:46;;;;;;;;;4.75;3.00;;;;;28.28;36.84;101727.34;5036519;28;66846;-46
2022/07/12 09:44:11;;;;;;;;;5.00;3.75;;;;;28.42;35.77;101727.03;5030901;28;45500;-46
2022/07/12 09:46:37;;;;;;;;;3.00;3.00;;;;;28.68;35.75;101723.88;5016312;28;46415;-45
2022/07/12 09:49:03;;;;;;;;;4.75;4.50;;;;;29.15;34.88;101725.06;5027013;28;70538;-46
2022/07/12 09:51:31;;;;;;;;;11.50;10.75;;;;;30.13;34.92;101719.66;5031277;28;45430;-49
2022/07/12 09:53:59;;;;;;;;;7.00;5.50;;;;;31.63;32.86;101722.22;5030509;28;71749;-47
2022/07/12 09:56:26;;;;;;;;;4.25;4.00;;;;;33.36;30.84;101725.84;5031230;28;46130;-46
2022/07/12 09:58:54;;;;;;;;;4.00;3.00;;;;;35.01;29.59;101729.16;5034954;28;45571;-51
2022/07/12 10:01:20;;;;;;;;;4.00;4.00;;;;;36.49;27.51;101720.59;5031610;28;45581;-48
2022/07/12 10:03:48;;;;;;;;;4.25;3.25;;;;;37.74;26.45;101726.88;5034286;28;45709;-47
2022/07/12 10:06:16;;;;;;;;;3.00;2.00;;;;;38.71;25.88;101734.25;5040723;28;46802;-49
2022/07/12 10:08:41;;;;;;;;;0.00;0.00;;;;;39.49;24.41;101727.53;5036662;28;45422;-50
2022/07/12 10:11:07;;;;;;;;;4.00;2.00;;;;;40.36;23.58;101736.56;5032884;28;45430;-47
2022/07/12 10:13:33;;;;;;;;;4.50;3.00;;;;;41.17;20.44;101735.13;5031377;28;69848;-48
2022/07/12 10:16:02;;;;;;;;;5.25;5.00;;;;;42.19;20.25;101730.53;5034418;28;46056;-50
2022/07/12 10:18:28;;;;;;;;;11.25;9.75;;;;;43.21;19.27;101725.19;5026540;28;45400;-49
2022/07/12 10:20:54;;;;;;;;;17.25;11.75;;;;;44.15;19.17;101726.38;5035025;28;45386;-50
2022/07/12 10:23:19;;;;;;;;;5.75;5.75;;;;;44.98;19.09;101729.75;5033562;28;45241;-49
2022/07/12 10:25:44;;;;;;;;;4.00;4.00;;;;;45.24;17.65;101725.50;5034587;28;45478;-51
2022/07/12 10:28:09;;;;;;;;;3.00;3.00;;;;;45.76;17.29;101727.22;5036754;28;68314;-52
2022/07/12 10:30:48;;;;;;;;;4.50;4.25;;;;;46.58;16.01;101724.72;5038500;28;45263;-47
2022/07/12 10:33:19;;;;;;;;;5.00;3.25;;;;;47.07;15.58;101730.25;5035085;28;45441;-51
2022/07/12 10:36:07;;;;;;;;;3.75;3.75;;;;;47.48;15.77;101729.78;5050290;28;47224;-50
2022/07/12 10:38:34;;;;;;;;;1.25;1.25;;;;;47.65;15.28;101724.06;5027069;28;45878;-48
2022/07/12 10:41:20;;;;;;;;;5.00;2.00;;;;;48.08;14.72;101730.47;5051640;28;45554;-48
2022/07/12 10:44:04;;;;;;;;;2.25;2.25;;;;;48.64;14.40;101727.06;5035168;28;45492;-52
2022/07/12 10:46:29;;;;;;;;;6.25;5.75;;;;;49.13;13.72;101711.88;5033322;28;46040;-46
2022/07/12 10:49:25;;;;;;;;;5.00;3.00;;;;;49.51;12.71;101721.59;5034567;28;45562;-49
2022/07/12 10:52:26;;;;;;;;;2.50;2.50;;;;;49.76;13.38;101723.50;5036173;28;45353;-49
2022/07/12 10:54:57;;;;;;;;;3.75;3.25;;;;;49.59;12.48;101717.44;5020239;28;45517;-51
2022/07/12 10:57:38;;;;;;;;;5.00;3.00;;;;;49.39;13.16;101721.88;5035661;28;45432;-46
2022/07/12 11:00:04;;;;;;;;;5.25;5.25;;;;;49.57;13.04;101723.25;5032374;28;45466;-52
2022/07/12 11:02:30;;;;;;;;;53.25;42.75;;;;;49.92;11.95;101718.75;5039074;28;45320;-45
2022/07/12 11:04:56;;;;;;;;;6.75;4.25;;;;;50.22;10.00;101728.13;5032012;28;49959;-45
2022/07/12 11:07:23;;;;;;;;;4.00;4.00;;;;;50.21;11.05;101726.44;5036505;28;45401;-50
2022/07/12 11:09:52;;;;;;;;;7.25;6.25;;;;;50.65;11.71;101708.13;5029541;28;52401;-51
2022/07/12 11:12:17;;;;;;;;;9.25;9.25;;;;;51.20;10.96;101717.19;5023111;28;45317;-49
2022/07/12 11:14:45;;;;;;;;;6.75;6.25;;;;;51.67;11.26;101713.97;5036332;28;45746;-52
2022/07/12 11:17:10;;;;;;;;;11.50;10.50;;;;;51.97;11.25;101715.56;5034892;28;45382;-46
2022/07/12 11:19:36;;;;;;;;;4.00;4.00;;;;;51.93;11.67;101708.94;5033932;28;45328;-49
2022/07/12 11:22:01;;;;;;;;;11.25;10.50;;;;;51.84;10.75;101708.75;5037148;28;58948;-48
2022/07/12 11:24:29;;;;;;;;;23.25;22.50;;;;;51.73;10.34;101707.19;5033701;28;45379;-48
2022/07/12 11:26:55;;;;;;;;;14.50;13.00;;;;;51.98;10.35;101701.31;5039119;28;45415;-52
2022/07/12 11:29:21;;;;;;;;;9.00;8.25;;;;;52.24;8.89;101709.38;5032348;28;45791;-48